Dries Fellaini

Olheiro - Anderlecht
3 Dez 2028
Domingo
Processo

Personalidade

Adaptabilidade (9) Ambição (1) Controvérsia (10) Lealdade (11) Pressão (8) Profissionalismo (1) Espírito Esportivo (7) Temperamento (13)

Perfil

Estilo de Treinamento Democrático
Licença Continental Pro
Determinação 8
Gestão de Pessoas 12
Motivação 6
Disciplina 9
Satisfação no Trabalho
100%
Fadiga
0%
Função Olheiro
Salário 64.2K p/s
Contrato 14.03.2029

Desempenho

Comportamento Bom
Eficácia do Treinamento
35%
Desenvolvimento do Jogador
50%
Prevenção de Lesões
40%
Implementação Tática
30%

Eventos Recentes

Participou de uma reunião de recrutamento 7d atrás
Avaliou um jogador 7d atrás
Avaliou um jogador 7d atrás
Participou de uma reunião de recrutamento 14d atrás
Avaliou um jogador 14d atrás
Avaliou um jogador 14d atrás
Avaliou um jogador 21d atrás
Avaliou um jogador 21d atrás

Monitorando agora

81
Jogador Clube Status Habilidade Confiança Observado Última observação Último voto
Christos Mouzakitis Hull City Ativo 151 / 147 40% 5 24.11.2028 -
Trey Nyoni Rotherham United Ativo 149 / 149 40% 3 24.11.2028 -
Kiani Inge Groningen Ativo 122 / 124 40% 2 24.11.2028 -
Mohammed Habib Sarwari Kariobangi Sharks Ativo 79 / 80 40% 1 22.11.2028 -
Matias Siltanen Malmo FF Ativo 136 / 134 40% 1 22.11.2028 -
Tiago Rodríguez Central Norte Ativo 75 / 81 40% 1 22.11.2028 -
Ayyoub Bouaddi Stoke City Ativo 151 / 158 40% 1 21.11.2028 -
Jofre Torrents Ajax Ativo 139 / 140 40% 1 21.11.2028 -
Celías Ingenthron Platense Ativo 111 / 125 40% 2 19.11.2028 -
Jan Cedilnik Chikhura Ativo 87 / 92 40% 1 18.11.2028 -
Guy Noël Zohouri Le Havre AC Ativo 130 / 134 40% 2 12.11.2028 -
Máximo Munarriz San Telmo Ativo 97 / 105 40% 1 12.11.2028 -
Joel Ezra Enyimba Ativo 108 / 104 40% 1 09.11.2028 -
Sebastian Rodriguez Houston Dynamo Ativo 123 / 126 40% 2 07.11.2028 -
Idrissa Sabaly Valenciennes Ativo 100 / 116 40% 1 07.11.2028 -
Kyllian Antonio RC Lens Ativo 126 / 126 40% 1 06.11.2028 -
Aytor Herrera Mineros de Guayana Ativo 93 / 92 40% 1 06.11.2028 -
Lisandro Piñero Banfield Ativo 132 / 128 40% 3 10.10.2028 -
Tiago Gordillo San Miguel Ativo 91 / 96 40% 1 10.10.2028 -
Ayanda Tibe Gor Mahia Ativo 81 / 98 40% 1 10.10.2028 -
Christian Silva Santiago Wanderers Ativo 83 / 89 40% 1 07.10.2028 -
Peyton Miller New England Revolution Ativo 122 / 123 40% 1 07.10.2028 -
Tiziano Cabrera Central Norte Ativo 97 / 95 40% 1 06.10.2028 -
Idris Ajiya Nasarawa United Ativo 86 / 93 40% 1 06.10.2028 -
Santiago Cuellar Central Norte Ativo 94 / 96 40% 1 04.10.2028 -
Mateo Faure BATE Ativo 100 / 96 40% 1 04.10.2028 -
Paolo Dorini Estudiantes de Merida Ativo 91 / 97 40% 2 03.10.2028 -
Tahiel Peralta Racing Club Ativo 117 / 119 40% 1 03.10.2028 -
Musa Malik Ikorodu City Ativo 97 / 96 40% 1 03.10.2028 -
Antoine Colassin Charleroi Perdido 124 / 127 62% 1 07.06.2028 -
Stanis Idumbo AC Ajaccio Ativo 137 / 140 40% 1 31.12.2027 -
Bruno Gomes Internacional Ativo 123 / 133 40% 2 15.12.2027 -
Tiago Santos LOSC Lille Ativo 162 / 151 40% 2 10.12.2027 -
Sergi Cardona KAA Gent Ativo 162 / 153 40% 1 10.12.2027 -
Samson Baidoo RC Lens Ativo 155 / 153 40% 4 09.12.2027 -
Ismaël Doukouré RC Strasbourg Ativo 152 / 144 40% 2 09.12.2027 -
Luciano Juba Bahia Ativo 141 / 133 40% 3 05.12.2027 -
Soumaïla Coulibaly RC Strasbourg Ativo 138 / 140 40% 1 05.12.2027 -
Danilo Botafogo Ativo 142 / 139 40% 2 03.12.2027 -
Diego Coppola Paris FC Ativo 149 / 149 40% 1 02.12.2027 -
Renan Lodi Atlético Mineiro Ativo 145 / 136 40% 1 25.11.2027 -
Vitinho Botafogo Ativo 134 / 135 40% 3 24.11.2027 -
Agustín Giay Palmeiras Ativo 131 / 134 40% 3 24.11.2027 -
Jakub Moder Burnley Ativo 144 / 142 40% 2 21.11.2027 -
Lucas Sanabria LA Galaxy Ativo 144 / 139 40% 2 19.11.2027 -
Marcos Antonio Sport Recife Ativo 134 / 139 40% 1 19.11.2027 -
Clément Akpa AJ Auxerre Ativo 128 / 134 40% 3 15.11.2027 -
Ayumu Seko Le Havre AC Ativo 134 / 137 40% 1 15.11.2027 -
Emil Breivik Molde Ativo 128 / 133 40% 2 10.11.2027 -
Amadou Haïdara RC Lens Ativo 149 / 147 40% 2 10.11.2027 -
Quentin Merlin Stade Rennais Ativo 149 / 140 40% 1 09.11.2027 -
Ángelo Preciado Atlético Mineiro Ativo 136 / 129 40% 1 05.11.2027 -
Abner Vinicius Olympique Lyonnais Ativo 146 / 138 40% 1 05.11.2027 -
Andrew Omobamidele RC Strasbourg Ativo 136 / 140 40% 1 02.11.2027 -
Victor Hernandez Santa Fe Ativo 115 / 127 40% 1 02.11.2027 -
Mitchel Bakker Modena Ativo 139 / 135 40% 1 31.10.2027 -
Beraldo Paris Saint-Germain Ativo 165 / 159 40% 1 28.10.2027 -
Matheus Henrique Cruzeiro Ativo 133 / 135 40% 1 27.10.2027 -
Fredrik Bjørkan Bodo/Glimt Ativo 146 / 125 40% 2 24.10.2027 -
Santiago Salcedo Cruzeiro Ativo 146 / 152 40% 1 24.10.2027 -
Lucas Høgsberg RC Strasbourg Ativo 144 / 146 40% 1 22.10.2027 -
Otávio Paris FC Ativo 144 / 138 40% 1 19.10.2027 -
Joris Chotard Stade Brestois Ativo 140 / 138 40% 1 09.10.2027 -
Matheus Bidu Corinthians Ativo 123 / 126 40% 1 09.10.2027 -
Riku Handa Gamba Osaka Ativo 128 / 137 40% 2 07.10.2027 -
Jordan Teze Monaco Ativo 146 / 143 40% 1 05.10.2027 -
Matheuzinho Corinthians Ativo 127 / 129 40% 1 02.10.2027 -
Youssouf Ndayishimiye OGC Nice Ativo 137 / 147 40% 1 30.09.2027 -
Vitão Flamengo Ativo 139 / 141 40% 1 28.09.2027 -
Riku Yamane Yokohama F. Marinos Ativo 130 / 131 40% 1 26.09.2027 -
Alexandro Bernabei Internacional Ativo 125 / 135 40% 2 23.09.2027 -
Taiyo Koga Kashiwa Reysol Ativo 137 / 141 40% 1 22.09.2027 -
Ismaël Bennacer Boca Juniors Ativo 140 / 146 40% 1 14.09.2027 -
Odin Bjørtuft Bodo/Glimt Ativo 118 / 128 40% 1 14.09.2027 -
Christian Kashima Antlers Ativo 137 / 135 40% 1 13.09.2027 -
César Inga Universitario Ativo 135 / 132 40% 1 08.09.2027 -
Niklas Dorsch Toronto FC Ativo 115 / 132 40% 1 07.09.2027 -
Ilias Sebaoui Sint-Truiden Ativo 134 / 127 58% 1 07.06.2027 -
Mile Svilar AS Roma Ativo 159 / 164 40% 1 02.06.2027 -
Ivor Pandur Hull City Ativo 134 / 123 40% 1 02.06.2027 -
Cisse Sandra Westerlo Ativo 115 / 116 55% 1 01.01.2027 -